Time,TemperatureF,DewpointF,PressureIn,WindDirection,WindDirectionDegrees,WindSpeedMPH,WindSpeedGustMPH,Humidity,HourlyPrecipIn,Conditions,Clouds,dailyrainin,SoftwareType,DateUTC
2013-02-15 00:02:00,29.8,26.0,29.86,WSW,238,0.0,-999.0,85,-99.99,,,0.00,weatherlink.com 1.10,2013-02-15 05:02:00,
2013-02-15 00:17:00,30.0,26.0,29.86,WSW,238,0.0,-999.0,84,-99.99,,,0.00,weatherlink.com 1.10,2013-02-15 05:17:00,
2013-02-15 00:32:00,29.9,26.0,29.86,WSW,238,0.0,-999.0,84,-99.99,,,0.00,weatherlink.com 1.10,2013-02-15 05:32:00,
2013-02-15 00:47:00,29.7,25.0,29.86,WSW,238,0.0,-999.0,84,-99.99,,,0.00,weatherlink.com 1.10,2013-02-15 05:47:00,
2013-02-15 01:02:00,29.7,25.0,29.86,WSW,238,0.0,-999.0,83,-99.99,,,0.00,weatherlink.com 1.10,2013-02-15 06:02:00,
2013-02-15 01:17:00,29.0,25.0,29.86,WSW,238,0.0,-999.0,83,-99.99,,,0.00,weatherlink.com 1.10,2013-02-15 06:17:00,
2013-02-15 01:32:00,28.1,24.0,29.86,WSW,238,0.0,-999.0,84,-99.99,,,0.00,weatherlink.com 1.10,2013-02-15 06:32:00,
2013-02-15 01:47:00,27.6,24.0,29.86,WSW,238,0.0,-999.0,86,-99.99,,,0.00,weatherlink.com 1.10,2013-02-15 06:47:00,
2013-02-15 02:02:00,27.2,24.0,29.86,WSW,238,0.0,-999.0,86,-99.99,,,0.00,weatherlink.com 1.10,2013-02-15 07:02:00,
2013-02-15 02:17:00,26.4,23.0,29.86,WSW,238,0.0,-999.0,87,-99.99,,,0.00,weatherlink.com 1.10,2013-02-15 07:17:00,
2013-02-15 02:32:00,25.7,23.0,29.86,WSW,238,0.0,-999.0,88,-99.99,,,0.00,weatherlink.com 1.10,2013-02-15 07:32:00,
2013-02-15 02:47:00,25.1,22.0,29.86,WSW,238,0.0,-999.0,89,-99.99,,,0.00,weatherlink.com 1.10,2013-02-15 07:47:00,
2013-02-15 03:02:00,25.2,23.0,29.86,WSW,238,0.0,-999.0,90,-99.99,,,0.00,weatherlink.com 1.10,2013-02-15 08:02:00,
2013-02-15 03:17:00,25.2,22.0,29.86,WSW,238,0.0,-999.0,89,-99.99,,,0.00,weatherlink.com 1.10,2013-02-15 08:17:00,
2013-02-15 03:32:00,24.7,22.0,29.86,WSW,238,0.0,-999.0,90,-99.99,,,0.00,weatherlink.com 1.10,2013-02-15 08:32:00,
2013-02-15 03:47:00,24.6,22.0,29.86,WSW,238,0.0,-999.0,90,-99.99,,,0.00,weatherlink.com 1.10,2013-02-15 08:47:00,
2013-02-15 04:02:00,24.3,22.0,29.86,South,170,0.0,-999.0,91,-99.99,,,0.00,weatherlink.com 1.10,2013-02-15 09:02:00,
2013-02-15 04:17:00,24.9,23.0,29.86,South,170,0.0,-999.0,91,-99.99,,,0.00,weatherlink.com 1.10,2013-02-15 09:17:00,
2013-02-15 04:32:00,25.0,23.0,29.86,WNW,290,0.0,-999.0,90,-99.99,,,0.00,weatherlink.com 1.10,2013-02-15 09:32:00,
2013-02-15 04:47:00,25.5,23.0,29.86,SSE,163,0.0,-999.0,90,-99.99,,,0.00,weatherlink.com 1.10,2013-02-15 09:47:00,
2013-02-15 05:02:00,25.6,23.0,29.86,WSW,254,0.0,-999.0,90,-99.99,,,0.00,weatherlink.com 1.10,2013-02-15 10:02:00,
2013-02-15 05:17:00,25.7,23.0,29.86,SSW,211,0.0,-999.0,90,-99.99,,,0.00,weatherlink.com 1.10,2013-02-15 10:17:00,
2013-02-15 05:32:00,26.8,24.0,29.86,SSW,192,0.0,-999.0,90,-99.99,,,0.00,weatherlink.com 1.10,2013-02-15 10:32:00,
2013-02-15 05:47:00,27.6,25.0,29.85,South,187,0.0,-999.0,90,-99.99,,,0.00,weatherlink.com 1.10,2013-02-15 10:47:00,
2013-02-15 06:02:00,28.1,26.0,29.85,ESE,117,0.0,-999.0,90,-99.99,,,0.00,weatherlink.com 1.10,2013-02-15 11:02:00,
2013-02-15 06:17:00,28.3,26.0,29.85,SE,134,0.0,-999.0,89,-99.99,,,0.00,weatherlink.com 1.10,2013-02-15 11:17:00,
2013-02-15 06:32:00,28.3,26.0,29.86,WSW,239,0.0,-999.0,90,-99.99,,,0.00,weatherlink.com 1.10,2013-02-15 11:32:00,
2013-02-15 06:47:00,28.4,26.0,29.86,SW,218,0.0,-999.0,90,-99.99,,,0.00,weatherlink.com 1.10,2013-02-15 11:47:00,
2013-02-15 07:02:00,28.7,26.0,29.86,SE,135,0.0,-999.0,90,-99.99,,,0.00,weatherlink.com 1.10,2013-02-15 12:02:00,
2013-02-15 07:17:00,28.8,26.0,29.86,SW,235,2.0,-999.0,90,-99.99,,,0.00,weatherlink.com 1.10,2013-02-15 12:17:00,
2013-02-15 07:32:00,29.4,27.0,29.86,SSW,209,0.0,-999.0,90,-99.99,,,0.00,weatherlink.com 1.10,2013-02-15 12:32:00,
2013-02-15 07:47:00,30.5,28.0,29.85,WNW,302,0.0,-999.0,91,-99.99,,,0.00,weatherlink.com 1.10,2013-02-15 12:47:00,
2013-02-15 08:02:00,31.4,29.0,29.85,SW,225,5.0,-999.0,90,-99.99,,,0.00,weatherlink.com 1.10,2013-02-15 13:02:00,
2013-02-15 08:17:00,32.3,29.0,29.85,WSW,240,0.0,-999.0,88,-99.99,,,0.00,weatherlink.com 1.10,2013-02-15 13:17:00,
2013-02-15 08:32:00,33.2,30.0,29.85,SW,214,0.0,-999.0,87,-99.99,,,0.00,weatherlink.com 1.10,2013-02-15 13:32:00,
2013-02-15 08:47:00,34.4,30.0,29.86,WSW,242,3.0,-999.0,85,-99.99,,,0.00,weatherlink.com 1.10,2013-02-15 13:47:00,
2013-02-15 09:02:00,35.4,31.0,29.86,WSW,248,0.0,-999.0,83,-99.99,,,0.00,weatherlink.com 1.10,2013-02-15 14:02:00,
2013-02-15 09:17:00,37.5,32.0,29.86,West,263,0.0,-999.0,79,-99.99,,,0.00,weatherlink.com 1.10,2013-02-15 14:17:00,
2013-02-15 09:32:00,39.7,32.0,29.86,South,188,4.0,-999.0,74,-99.99,,,0.00,weatherlink.com 1.10,2013-02-15 14:32:00,
2013-02-15 09:47:00,40.7,32.0,29.86,SSW,207,3.0,-999.0,70,-99.99,,,0.00,weatherlink.com 1.10,2013-02-15 14:47:00,
2013-02-15 10:02:00,41.7,31.0,29.86,South,182,1.0,-999.0,67,-99.99,,,0.00,weatherlink.com 1.10,2013-02-15 15:02:00,
2013-02-15 10:17:00,42.6,31.0,29.86,SW,231,13.0,-999.0,65,-99.99,,,0.00,weatherlink.com 1.10,2013-02-15 15:17:00,
2013-02-15 10:32:00,43.6,31.0,29.85,South,190,0.0,-999.0,62,-99.99,,,0.00,weatherlink.com 1.10,2013-02-15 15:32:00,
2013-02-15 10:47:00,45.0,31.0,29.85,SW,230,1.0,-999.0,59,-99.99,,,0.00,weatherlink.com 1.10,2013-02-15 15:47:00,
2013-02-15 11:02:00,45.9,31.0,29.84,WSW,252,0.0,-999.0,57,-99.99,,,0.00,weatherlink.com 1.10,2013-02-15 16:02:00,
2013-02-15 11:17:00,46.0,31.0,29.84,West,271,0.0,-999.0,57,-99.99,,,0.00,weatherlink.com 1.10,2013-02-15 16:17:00,
2013-02-15 11:32:00,46.8,32.0,29.84,West,279,2.0,-999.0,56,-99.99,,,0.00,weatherlink.com 1.10,2013-02-15 16:32:00,
2013-02-15 11:47:00,47.5,32.0,29.83,WSW,247,0.0,-999.0,56,-99.99,,,0.00,weatherlink.com 1.10,2013-02-15 16:47:00,
2013-02-15 12:02:00,48.7,32.0,29.82,West,261,0.0,-999.0,53,-99.99,,,0.00,weatherlink.com 1.10,2013-02-15 17:02:00,
2013-02-15 12:17:00,48.6,32.0,29.81,WSW,253,2.0,-999.0,53,-99.99,,,0.00,weatherlink.com 1.10,2013-02-15 17:17:00,
2013-02-15 12:32:00,49.0,32.0,29.80,WNW,298,0.0,-999.0,53,-99.99,,,0.00,weatherlink.com 1.10,2013-02-15 17:32:00,
2013-02-15 12:48:00,49.5,32.0,29.79,West,281,0.0,-999.0,52,-99.99,,,0.00,weatherlink.com 1.10,2013-02-15 17:48:00,
2013-02-15 13:02:00,50.2,33.0,29.79,West,264,1.0,-999.0,51,-99.99,,,0.00,weatherlink.com 1.10,2013-02-15 18:02:00,
2013-02-15 13:17:00,50.7,32.0,29.79,SW,233,2.0,-999.0,49,-99.99,,,0.00,weatherlink.com 1.10,2013-02-15 18:17:00,
2013-02-15 13:32:00,51.0,32.0,29.78,NNW,328,0.0,-999.0,49,-99.99,,,0.00,weatherlink.com 1.10,2013-02-15 18:32:00,
2013-02-15 13:47:00,51.2,32.0,29.78,SSW,202,4.0,-999.0,49,-99.99,,,0.00,weatherlink.com 1.10,2013-02-15 18:47:00,
2013-02-15 14:02:00,51.3,33.0,29.78,SE,126,0.0,-999.0,49,-99.99,,,0.00,weatherlink.com 1.10,2013-02-15 19:02:00,
2013-02-15 14:17:00,51.7,32.0,29.78,SSW,212,7.0,-999.0,48,-99.99,,,0.00,weatherlink.com 1.10,2013-02-15 19:17:00,
2013-02-15 14:32:00,51.7,32.0,29.78,NNW,327,0.0,-999.0,48,-99.99,,,0.00,weatherlink.com 1.10,2013-02-15 19:32:00,
2013-02-15 14:47:00,51.8,32.0,29.78,West,278,6.0,-999.0,48,-99.99,,,0.00,weatherlink.com 1.10,2013-02-15 19:47:00,
2013-02-15 15:02:00,51.8,32.0,29.77,SSW,196,6.0,-999.0,48,-99.99,,,0.00,weatherlink.com 1.10,2013-02-15 20:02:00,
2013-02-15 15:17:00,51.7,33.0,29.77,SSW,205,0.0,-999.0,49,-99.99,,,0.00,weatherlink.com 1.10,2013-02-15 20:17:00,
2013-02-15 15:32:00,51.5,33.0,29.77,West,281,7.0,-999.0,50,-99.99,,,0.00,weatherlink.com 1.10,2013-02-15 20:32:00,
2013-02-15 15:47:00,51.3,33.0,29.77,West,279,0.0,-999.0,50,-99.99,,,0.00,weatherlink.com 1.10,2013-02-15 20:47:00,
2013-02-15 16:02:00,51.0,33.0,29.77,SW,224,0.0,-999.0,51,-99.99,,,0.00,weatherlink.com 1.10,2013-02-15 21:02:00,
2013-02-15 16:17:00,50.4,33.0,29.77,WSW,242,0.0,-999.0,51,-99.99,,,0.00,weatherlink.com 1.10,2013-02-15 21:17:00,
2013-02-15 16:32:00,49.7,33.0,29.77,West,274,0.0,-999.0,52,-99.99,,,0.00,weatherlink.com 1.10,2013-02-15 21:32:00,
2013-02-15 16:47:00,48.5,32.0,29.77,SW,230,0.0,-999.0,54,-99.99,,,0.00,weatherlink.com 1.10,2013-02-15 21:47:00,
2013-02-15 17:02:00,47.5,32.0,29.78,SW,224,0.0,-999.0,56,-99.99,,,0.00,weatherlink.com 1.10,2013-02-15 22:02:00,
2013-02-15 17:17:00,46.4,32.0,29.78,WSW,238,0.0,-999.0,58,-99.99,,,0.00,weatherlink.com 1.10,2013-02-15 22:17:00,
2013-02-15 17:32:00,44.2,32.0,29.78,SW,221,0.0,-999.0,63,-99.99,,,0.00,weatherlink.com 1.10,2013-02-15 22:32:00,
2013-02-15 17:47:00,42.9,33.0,29.78,SW,221,0.0,-999.0,68,-99.99,,,0.00,weatherlink.com 1.10,2013-02-15 22:47:00,
2013-02-15 18:02:00,41.9,33.0,29.78,SW,220,0.0,-999.0,71,-99.99,,,0.00,weatherlink.com 1.10,2013-02-15 23:02:00,
2013-02-15 18:17:00,41.0,34.0,29.78,WSW,237,0.0,-999.0,75,-99.99,,,0.00,weatherlink.com 1.10,2013-02-15 23:17:00,
2013-02-15 18:32:00,40.3,34.0,29.79,West,260,0.0,-999.0,77,-99.99,,,0.00,weatherlink.com 1.10,2013-02-15 23:32:00,
2013-02-15 18:47:00,39.8,34.0,29.79,West,267,0.0,-999.0,79,-99.99,,,0.00,weatherlink.com 1.10,2013-02-15 23:47:00,
2013-02-15 19:02:00,39.4,34.0,29.79,SSW,198,0.0,-999.0,80,-99.99,,,0.00,weatherlink.com 1.10,2013-02-16 00:02:00,
2013-02-15 19:17:00,39.0,34.0,29.80,South,176,0.0,-999.0,82,-99.99,,,0.00,weatherlink.com 1.10,2013-02-16 00:17:00,
2013-02-15 19:32:00,39.0,34.0,29.80,SW,228,0.0,-999.0,82,-99.99,,,0.00,weatherlink.com 1.10,2013-02-16 00:32:00,
2013-02-15 19:47:00,38.6,34.0,29.80,SW,231,0.0,-999.0,83,-99.99,,,0.00,weatherlink.com 1.10,2013-02-16 00:47:00,
2013-02-15 20:02:00,38.7,34.0,29.81,SW,223,0.0,-999.0,83,-99.99,,,0.00,weatherlink.com 1.10,2013-02-16 01:02:00,
2013-02-15 20:17:00,40.1,34.0,29.81,SW,216,0.0,-999.0,78,-99.99,,,0.00,weatherlink.com 1.10,2013-02-16 01:17:00,
2013-02-15 20:32:00,40.1,33.0,29.81,SW,221,0.0,-999.0,77,-99.99,,,0.00,weatherlink.com 1.10,2013-02-16 01:32:00,
2013-02-15 20:47:00,39.8,32.0,29.82,SW,221,0.0,-999.0,75,-99.99,,,0.00,weatherlink.com 1.10,2013-02-16 01:47:00,
2013-02-15 21:02:00,39.7,32.0,29.82,SW,221,0.0,-999.0,75,-99.99,,,0.00,weatherlink.com 1.10,2013-02-16 02:02:00,
2013-02-15 21:17:00,38.3,31.0,29.82,SW,221,0.0,-999.0,75,-99.99,,,0.00,weatherlink.com 1.10,2013-02-16 02:17:00,
2013-02-15 21:32:00,38.4,30.0,29.83,SW,221,0.0,-999.0,72,-99.99,,,0.00,weatherlink.com 1.10,2013-02-16 02:32:00,
2013-02-15 21:47:00,37.9,29.0,29.82,SW,221,0.0,-999.0,71,-99.99,,,0.00,weatherlink.com 1.10,2013-02-16 02:47:00,
2013-02-15 22:02:00,38.1,29.0,29.82,SW,221,0.0,-999.0,70,-99.99,,,0.00,weatherlink.com 1.10,2013-02-16 03:02:00,
2013-02-15 22:17:00,36.2,29.0,29.83,SW,221,0.0,-999.0,76,-99.99,,,0.00,weatherlink.com 1.10,2013-02-16 03:17:00,
2013-02-15 22:32:00,36.1,27.0,29.82,SW,221,0.0,-999.0,70,-99.99,,,0.00,weatherlink.com 1.10,2013-02-16 03:32:00,
2013-02-15 22:47:00,36.3,28.0,29.81,SW,221,0.0,-999.0,72,-99.99,,,0.00,weatherlink.com 1.10,2013-02-16 03:47:00,
2013-02-15 23:02:00,34.8,27.0,29.82,SW,221,0.0,-999.0,74,-99.99,,,0.00,weatherlink.com 1.10,2013-02-16 04:02:00,
2013-02-15 23:17:00,34.6,27.0,29.83,SW,221,0.0,-999.0,73,-99.99,,,0.00,weatherlink.com 1.10,2013-02-16 04:17:00,
2013-02-15 23:32:00,33.0,27.0,29.82,SW,221,0.0,-999.0,79,-99.99,,,0.00,weatherlink.com 1.10,2013-02-16 04:32:00,
2013-02-15 23:47:00,31.6,27.0,29.82,SW,221,0.0,-999.0,82,-99.99,,,0.00,weatherlink.com 1.10,2013-02-16 04:47:00,